sensor_id;sensor_type;location;lat;lon;timestamp;P1;durP1;ratioP1;P2;durP2;ratioP2
46765;SDS011;32527;51.986;5.842;2023-04-21T00:01:31;43.42;;;20.88;;
46765;SDS011;32527;51.986;5.842;2023-04-21T00:03:58;38.83;;;21.80;;
46765;SDS011;32527;51.986;5.842;2023-04-21T00:06:24;39.45;;;20.42;;
46765;SDS011;32527;51.986;5.842;2023-04-21T00:08:50;40.42;;;20.08;;
46765;SDS011;32527;51.986;5.842;2023-04-21T00:11:16;44.58;;;21.52;;
46765;SDS011;32527;51.986;5.842;2023-04-21T00:13:42;40.78;;;21.10;;
46765;SDS011;32527;51.986;5.842;2023-04-21T00:16:08;42.28;;;21.85;;
46765;SDS011;32527;51.986;5.842;2023-04-21T00:18:34;39.90;;;20.30;;
46765;SDS011;32527;51.986;5.842;2023-04-21T00:20:59;42.92;;;22.13;;
46765;SDS011;32527;51.986;5.842;2023-04-21T00:23:25;41.83;;;22.30;;
46765;SDS011;32527;51.986;5.842;2023-04-21T00:25:52;43.15;;;22.55;;
46765;SDS011;32527;51.986;5.842;2023-04-21T00:28:18;45.30;;;22.95;;
46765;SDS011;32527;51.986;5.842;2023-04-21T00:30:43;41.67;;;22.58;;
46765;SDS011;32527;51.986;5.842;2023-04-21T00:33:09;43.90;;;23.77;;
46765;SDS011;32527;51.986;5.842;2023-04-21T00:35:36;41.40;;;21.83;;
46765;SDS011;32527;51.986;5.842;2023-04-21T00:38:02;46.80;;;24.10;;
46765;SDS011;32527;51.986;5.842;2023-04-21T00:40:28;43.70;;;22.60;;
46765;SDS011;32527;51.986;5.842;2023-04-21T00:42:54;46.28;;;23.55;;
46765;SDS011;32527;51.986;5.842;2023-04-21T00:45:19;43.90;;;23.55;;
46765;SDS011;32527;51.986;5.842;2023-04-21T00:47:45;45.67;;;22.98;;
46765;SDS011;32527;51.986;5.842;2023-04-21T00:50:11;47.35;;;22.73;;
46765;SDS011;32527;51.986;5.842;2023-04-21T00:52:40;45.55;;;23.75;;
46765;SDS011;32527;51.986;5.842;2023-04-21T00:55:08;44.85;;;23.10;;
46765;SDS011;32527;51.986;5.842;2023-04-21T00:57:35;50.65;;;24.55;;
46765;SDS011;32527;51.986;5.842;2023-04-21T01:00:02;43.40;;;22.50;;
46765;SDS011;32527;51.986;5.842;2023-04-21T01:02:30;42.60;;;22.30;;
46765;SDS011;32527;51.986;5.842;2023-04-21T01:04:56;44.70;;;22.42;;
46765;SDS011;32527;51.986;5.842;2023-04-21T01:07:23;43.90;;;22.55;;
46765;SDS011;32527;51.986;5.842;2023-04-21T01:09:49;42.42;;;22.58;;
46765;SDS011;32527;51.986;5.842;2023-04-21T01:12:15;46.42;;;23.70;;
46765;SDS011;32527;51.986;5.842;2023-04-21T01:14:41;42.13;;;23.10;;
46765;SDS011;32527;51.986;5.842;2023-04-21T01:17:09;44.78;;;24.35;;
46765;SDS011;32527;51.986;5.842;2023-04-21T01:19:39;48.15;;;23.83;;
46765;SDS011;32527;51.986;5.842;2023-04-21T01:22:07;49.13;;;22.80;;
46765;SDS011;32527;51.986;5.842;2023-04-21T01:24:41;51.05;;;25.42;;
46765;SDS011;32527;51.986;5.842;2023-04-21T01:27:10;45.17;;;23.83;;
46765;SDS011;32527;51.986;5.842;2023-04-21T01:29:38;43.83;;;23.35;;
46765;SDS011;32527;51.986;5.842;2023-04-21T01:32:07;51.95;;;25.30;;
46765;SDS011;32527;51.986;5.842;2023-04-21T01:34:38;56.90;;;26.10;;
46765;SDS011;32527;51.986;5.842;2023-04-21T01:37:09;49.25;;;24.15;;
46765;SDS011;32527;51.986;5.842;2023-04-21T01:39:39;51.58;;;26.00;;
46765;SDS011;32527;51.986;5.842;2023-04-21T01:42:06;48.90;;;25.83;;
46765;SDS011;32527;51.986;5.842;2023-04-21T01:44:32;50.25;;;25.77;;
46765;SDS011;32527;51.986;5.842;2023-04-21T01:46:58;50.88;;;24.40;;
46765;SDS011;32527;51.986;5.842;2023-04-21T01:49:24;54.33;;;25.80;;
46765;SDS011;32527;51.986;5.842;2023-04-21T01:51:51;56.65;;;26.77;;
46765;SDS011;32527;51.986;5.842;2023-04-21T01:54:17;54.70;;;27.58;;
46765;SDS011;32527;51.986;5.842;2023-04-21T01:56:43;61.72;;;28.42;;
46765;SDS011;32527;51.986;5.842;2023-04-21T01:59:09;53.97;;;26.80;;
46765;SDS011;32527;51.986;5.842;2023-04-21T02:01:35;49.53;;;27.45;;
46765;SDS011;32527;51.986;5.842;2023-04-21T02:04:02;50.67;;;26.83;;
46765;SDS011;32527;51.986;5.842;2023-04-21T02:06:28;54.05;;;26.17;;
46765;SDS011;32527;51.986;5.842;2023-04-21T02:08:55;48.80;;;25.85;;
46765;SDS011;32527;51.986;5.842;2023-04-21T02:11:22;54.28;;;26.63;;
46765;SDS011;32527;51.986;5.842;2023-04-21T02:13:50;53.15;;;27.70;;
46765;SDS011;32527;51.986;5.842;2023-04-21T02:16:20;52.88;;;27.52;;
46765;SDS011;32527;51.986;5.842;2023-04-21T02:18:50;56.13;;;26.17;;
46765;SDS011;32527;51.986;5.842;2023-04-21T02:21:17;49.60;;;26.23;;
46765;SDS011;32527;51.986;5.842;2023-04-21T02:23:47;49.40;;;26.38;;
46765;SDS011;32527;51.986;5.842;2023-04-21T02:26:13;45.00;;;24.52;;
46765;SDS011;32527;51.986;5.842;2023-04-21T02:28:39;45.80;;;25.40;;
46765;SDS011;32527;51.986;5.842;2023-04-21T02:31:05;48.95;;;24.95;;
46765;SDS011;32527;51.986;5.842;2023-04-21T02:33:32;49.60;;;24.58;;
46765;SDS011;32527;51.986;5.842;2023-04-21T02:35:58;48.53;;;25.88;;
46765;SDS011;32527;51.986;5.842;2023-04-21T02:38:24;44.80;;;23.15;;
46765;SDS011;32527;51.986;5.842;2023-04-21T02:40:50;47.55;;;24.08;;
46765;SDS011;32527;51.986;5.842;2023-04-21T02:43:17;50.55;;;26.70;;
46765;SDS011;32527;51.986;5.842;2023-04-21T02:45:43;44.55;;;24.27;;
46765;SDS011;32527;51.986;5.842;2023-04-21T02:48:10;48.38;;;26.45;;
46765;SDS011;32527;51.986;5.842;2023-04-21T02:50:36;45.90;;;25.40;;
46765;SDS011;32527;51.986;5.842;2023-04-21T02:53:02;43.72;;;24.05;;
46765;SDS011;32527;51.986;5.842;2023-04-21T02:55:29;54.38;;;28.38;;
46765;SDS011;32527;51.986;5.842;2023-04-21T02:57:55;51.80;;;27.45;;
46765;SDS011;32527;51.986;5.842;2023-04-21T03:00:22;45.83;;;24.75;;
46765;SDS011;32527;51.986;5.842;2023-04-21T03:02:48;45.88;;;26.25;;
46765;SDS011;32527;51.986;5.842;2023-04-21T03:05:14;52.28;;;27.35;;
46765;SDS011;32527;51.986;5.842;2023-04-21T03:07:43;48.80;;;25.73;;
46765;SDS011;32527;51.986;5.842;2023-04-21T03:10:09;60.88;;;28.42;;
46765;SDS011;32527;51.986;5.842;2023-04-21T03:12:35;54.38;;;27.48;;
46765;SDS011;32527;51.986;5.842;2023-04-21T03:15:02;49.13;;;25.50;;
46765;SDS011;32527;51.986;5.842;2023-04-21T03:17:28;46.22;;;26.42;;
46765;SDS011;32527;51.986;5.842;2023-04-21T03:19:53;51.53;;;27.45;;
46765;SDS011;32527;51.986;5.842;2023-04-21T03:22:20;55.13;;;28.45;;
46765;SDS011;32527;51.986;5.842;2023-04-21T03:24:45;52.53;;;26.73;;
46765;SDS011;32527;51.986;5.842;2023-04-21T03:27:11;50.50;;;26.63;;
46765;SDS011;32527;51.986;5.842;2023-04-21T03:29:37;56.72;;;28.80;;
46765;SDS011;32527;51.986;5.842;2023-04-21T03:32:03;50.50;;;29.10;;
46765;SDS011;32527;51.986;5.842;2023-04-21T03:34:28;58.50;;;27.30;;
46765;SDS011;32527;51.986;5.842;2023-04-21T03:36:59;58.05;;;28.98;;
46765;SDS011;32527;51.986;5.842;2023-04-21T03:39:25;56.72;;;29.80;;
46765;SDS011;32527;51.986;5.842;2023-04-21T03:41:51;62.95;;;31.65;;
46765;SDS011;32527;51.986;5.842;2023-04-21T03:44:17;56.60;;;29.83;;
46765;SDS011;32527;51.986;5.842;2023-04-21T03:46:43;60.50;;;31.50;;
46765;SDS011;32527;51.986;5.842;2023-04-21T03:49:09;60.92;;;30.42;;
46765;SDS011;32527;51.986;5.842;2023-04-21T03:51:35;57.53;;;31.08;;
46765;SDS011;32527;51.986;5.842;2023-04-21T03:54:01;61.90;;;31.80;;
46765;SDS011;32527;51.986;5.842;2023-04-21T03:56:27;66.93;;;32.78;;
46765;SDS011;32527;51.986;5.842;2023-04-21T03:58:53;65.70;;;34.33;;
46765;SDS011;32527;51.986;5.842;2023-04-21T04:01:19;59.13;;;32.10;;
46765;SDS011;32527;51.986;5.842;2023-04-21T04:03:46;60.10;;;33.03;;
46765;SDS011;32527;51.986;5.842;2023-04-21T04:06:12;64.53;;;33.60;;
46765;SDS011;32527;51.986;5.842;2023-04-21T04:08:38;64.35;;;35.17;;
46765;SDS011;32527;51.986;5.842;2023-04-21T04:11:04;64.05;;;31.98;;
46765;SDS011;32527;51.986;5.842;2023-04-21T04:13:30;68.63;;;32.67;;
46765;SDS011;32527;51.986;5.842;2023-04-21T04:15:56;60.42;;;32.78;;
46765;SDS011;32527;51.986;5.842;2023-04-21T04:18:22;70.07;;;36.28;;
46765;SDS011;32527;51.986;5.842;2023-04-21T04:20:48;64.03;;;34.47;;
46765;SDS011;32527;51.986;5.842;2023-04-21T04:23:14;64.13;;;31.27;;
46765;SDS011;32527;51.986;5.842;2023-04-21T04:25:40;64.55;;;33.83;;
46765;SDS011;32527;51.986;5.842;2023-04-21T04:28:06;68.07;;;34.42;;
46765;SDS011;32527;51.986;5.842;2023-04-21T04:30:33;64.18;;;35.85;;
46765;SDS011;32527;51.986;5.842;2023-04-21T04:32:59;68.05;;;35.45;;
46765;SDS011;32527;51.986;5.842;2023-04-21T04:35:25;69.40;;;37.58;;
46765;SDS011;32527;51.986;5.842;2023-04-21T04:37:51;62.83;;;33.33;;
46765;SDS011;32527;51.986;5.842;2023-04-21T04:40:17;64.03;;;36.00;;
46765;SDS011;32527;51.986;5.842;2023-04-21T04:42:44;67.32;;;34.25;;
46765;SDS011;32527;51.986;5.842;2023-04-21T04:45:11;68.30;;;34.55;;
46765;SDS011;32527;51.986;5.842;2023-04-21T04:47:38;64.57;;;33.80;;
46765;SDS011;32527;51.986;5.842;2023-04-21T04:50:04;62.08;;;34.08;;
46765;SDS011;32527;51.986;5.842;2023-04-21T04:52:30;65.50;;;35.83;;
46765;SDS011;32527;51.986;5.842;2023-04-21T04:54:56;67.32;;;36.65;;
46765;SDS011;32527;51.986;5.842;2023-04-21T04:57:22;67.57;;;36.50;;
46765;SDS011;32527;51.986;5.842;2023-04-21T04:59:48;61.97;;;34.45;;
46765;SDS011;32527;51.986;5.842;2023-04-21T05:02:14;64.78;;;36.00;;
46765;SDS011;32527;51.986;5.842;2023-04-21T05:04:39;65.28;;;34.33;;
46765;SDS011;32527;51.986;5.842;2023-04-21T05:07:05;69.95;;;38.03;;
46765;SDS011;32527;51.986;5.842;2023-04-21T05:09:32;68.45;;;36.15;;
46765;SDS011;32527;51.986;5.842;2023-04-21T05:11:58;66.72;;;35.15;;
46765;SDS011;32527;51.986;5.842;2023-04-21T05:14:25;64.78;;;33.90;;
46765;SDS011;32527;51.986;5.842;2023-04-21T05:16:51;60.08;;;34.65;;
46765;SDS011;32527;51.986;5.842;2023-04-21T05:19:17;59.58;;;33.25;;
46765;SDS011;32527;51.986;5.842;2023-04-21T05:21:43;62.90;;;35.70;;
46765;SDS011;32527;51.986;5.842;2023-04-21T05:24:09;61.22;;;35.20;;
46765;SDS011;32527;51.986;5.842;2023-04-21T05:26:34;65.85;;;37.28;;
46765;SDS011;32527;51.986;5.842;2023-04-21T05:29:00;64.70;;;34.80;;
46765;SDS011;32527;51.986;5.842;2023-04-21T05:31:26;62.42;;;34.75;;
46765;SDS011;32527;51.986;5.842;2023-04-21T05:33:52;59.80;;;32.58;;
46765;SDS011;32527;51.986;5.842;2023-04-21T05:36:18;59.92;;;34.90;;
46765;SDS011;32527;51.986;5.842;2023-04-21T05:38:44;60.70;;;34.05;;
46765;SDS011;32527;51.986;5.842;2023-04-21T05:41:10;58.63;;;32.60;;
46765;SDS011;32527;51.986;5.842;2023-04-21T05:43:36;64.05;;;33.13;;
46765;SDS011;32527;51.986;5.842;2023-04-21T05:46:02;60.97;;;32.92;;
46765;SDS011;32527;51.986;5.842;2023-04-21T05:48:33;55.20;;;32.55;;
46765;SDS011;32527;51.986;5.842;2023-04-21T05:51:09;57.30;;;32.50;;
46765;SDS011;32527;51.986;5.842;2023-04-21T05:53:36;58.92;;;33.00;;
46765;SDS011;32527;51.986;5.842;2023-04-21T05:56:02;60.55;;;33.97;;
46765;SDS011;32527;51.986;5.842;2023-04-21T05:58:29;60.33;;;32.58;;
46765;SDS011;32527;51.986;5.842;2023-04-21T06:00:55;59.42;;;33.20;;
46765;SDS011;32527;51.986;5.842;2023-04-21T06:03:20;63.40;;;33.13;;
46765;SDS011;32527;51.986;5.842;2023-04-21T06:05:47;55.67;;;32.20;;
46765;SDS011;32527;51.986;5.842;2023-04-21T06:08:18;51.42;;;30.25;;
46765;SDS011;32527;51.986;5.842;2023-04-21T06:10:44;60.30;;;32.67;;
46765;SDS011;32527;51.986;5.842;2023-04-21T06:13:09;50.67;;;30.05;;
46765;SDS011;32527;51.986;5.842;2023-04-21T06:15:35;51.28;;;31.02;;
46765;SDS011;32527;51.986;5.842;2023-04-21T06:18:01;47.08;;;30.58;;
46765;SDS011;32527;51.986;5.842;2023-04-21T06:20:27;48.63;;;29.52;;
46765;SDS011;32527;51.986;5.842;2023-04-21T06:22:53;52.88;;;31.40;;
46765;SDS011;32527;51.986;5.842;2023-04-21T06:25:18;48.65;;;30.17;;
46765;SDS011;32527;51.986;5.842;2023-04-21T06:27:44;55.45;;;32.55;;
46765;SDS011;32527;51.986;5.842;2023-04-21T06:30:10;48.78;;;28.33;;
46765;SDS011;32527;51.986;5.842;2023-04-21T06:32:36;53.63;;;30.33;;
46765;SDS011;32527;51.986;5.842;2023-04-21T06:35:03;53.28;;;29.58;;
46765;SDS011;32527;51.986;5.842;2023-04-21T06:37:28;54.85;;;29.35;;
46765;SDS011;32527;51.986;5.842;2023-04-21T06:39:55;45.70;;;28.10;;
46765;SDS011;32527;51.986;5.842;2023-04-21T06:42:20;51.63;;;30.90;;
46765;SDS011;32527;51.986;5.842;2023-04-21T06:44:46;45.53;;;27.90;;
46765;SDS011;32527;51.986;5.842;2023-04-21T06:47:12;41.95;;;25.33;;
46765;SDS011;32527;51.986;5.842;2023-04-21T06:49:40;38.10;;;24.98;;
46765;SDS011;32527;51.986;5.842;2023-04-21T06:52:06;35.67;;;23.55;;
46765;SDS011;32527;51.986;5.842;2023-04-21T06:54:32;32.17;;;22.00;;
46765;SDS011;32527;51.986;5.842;2023-04-21T06:56:58;30.13;;;20.90;;
46765;SDS011;32527;51.986;5.842;2023-04-21T06:59:24;30.90;;;20.75;;
46765;SDS011;32527;51.986;5.842;2023-04-21T07:01:50;30.95;;;21.05;;
46765;SDS011;32527;51.986;5.842;2023-04-21T07:04:19;33.25;;;21.65;;
46765;SDS011;32527;51.986;5.842;2023-04-21T07:06:45;28.95;;;19.40;;
46765;SDS011;32527;51.986;5.842;2023-04-21T07:09:12;28.67;;;20.35;;
46765;SDS011;32527;51.986;5.842;2023-04-21T07:11:38;35.28;;;21.50;;
46765;SDS011;32527;51.986;5.842;2023-04-21T07:14:03;33.63;;;22.40;;
46765;SDS011;32527;51.986;5.842;2023-04-21T07:16:30;36.72;;;22.42;;
46765;SDS011;32527;51.986;5.842;2023-04-21T07:18:56;31.73;;;21.17;;
46765;SDS011;32527;51.986;5.842;2023-04-21T07:21:22;32.70;;;21.15;;
46765;SDS011;32527;51.986;5.842;2023-04-21T07:23:48;35.25;;;22.45;;
46765;SDS011;32527;51.986;5.842;2023-04-21T07:26:13;35.83;;;24.70;;
46765;SDS011;32527;51.986;5.842;2023-04-21T07:28:39;40.08;;;24.05;;
46765;SDS011;32527;51.986;5.842;2023-04-21T07:31:05;35.55;;;24.75;;
46765;SDS011;32527;51.986;5.842;2023-04-21T07:33:31;33.13;;;22.33;;
46765;SDS011;32527;51.986;5.842;2023-04-21T07:35:57;38.60;;;23.30;;
46765;SDS011;32527;51.986;5.842;2023-04-21T07:38:23;35.45;;;23.90;;
46765;SDS011;32527;51.986;5.842;2023-04-21T07:40:50;36.15;;;23.27;;
46765;SDS011;32527;51.986;5.842;2023-04-21T07:43:15;38.25;;;25.15;;
46765;SDS011;32527;51.986;5.842;2023-04-21T07:45:43;37.78;;;24.83;;
46765;SDS011;32527;51.986;5.842;2023-04-21T07:48:09;40.55;;;24.35;;
46765;SDS011;32527;51.986;5.842;2023-04-21T07:50:35;40.78;;;25.65;;
46765;SDS011;32527;51.986;5.842;2023-04-21T07:53:01;39.22;;;24.42;;
46765;SDS011;32527;51.986;5.842;2023-04-21T07:55:27;46.33;;;25.20;;
46765;SDS011;32527;51.986;5.842;2023-04-21T07:57:53;37.88;;;24.15;;
46765;SDS011;32527;51.986;5.842;2023-04-21T08:00:19;39.55;;;24.20;;
46765;SDS011;32527;51.986;5.842;2023-04-21T08:02:45;36.22;;;23.75;;
46765;SDS011;32527;51.986;5.842;2023-04-21T08:05:11;34.00;;;21.83;;
46765;SDS011;32527;51.986;5.842;2023-04-21T08:07:36;34.58;;;22.67;;
46765;SDS011;32527;51.986;5.842;2023-04-21T08:10:04;33.85;;;22.40;;
46765;SDS011;32527;51.986;5.842;2023-04-21T08:12:30;31.33;;;22.65;;
46765;SDS011;32527;51.986;5.842;2023-04-21T08:14:56;35.50;;;23.17;;
46765;SDS011;32527;51.986;5.842;2023-04-21T08:17:22;32.47;;;21.95;;
46765;SDS011;32527;51.986;5.842;2023-04-21T08:19:48;29.00;;;20.58;;
46765;SDS011;32527;51.986;5.842;2023-04-21T08:22:14;32.67;;;21.42;;
46765;SDS011;32527;51.986;5.842;2023-04-21T08:24:40;34.55;;;20.77;;
46765;SDS011;32527;51.986;5.842;2023-04-21T08:27:05;29.80;;;21.95;;
46765;SDS011;32527;51.986;5.842;2023-04-21T08:29:31;33.45;;;22.05;;
46765;SDS011;32527;51.986;5.842;2023-04-21T08:31:57;30.88;;;21.45;;
46765;SDS011;32527;51.986;5.842;2023-04-21T08:34:23;34.03;;;21.73;;
46765;SDS011;32527;51.986;5.842;2023-04-21T08:36:50;36.40;;;23.67;;
46765;SDS011;32527;51.986;5.842;2023-04-21T08:39:16;33.88;;;21.55;;
46765;SDS011;32527;51.986;5.842;2023-04-21T08:41:42;34.97;;;23.27;;
46765;SDS011;32527;51.986;5.842;2023-04-21T08:44:08;36.15;;;22.80;;
46765;SDS011;32527;51.986;5.842;2023-04-21T08:46:35;32.17;;;21.08;;
46765;SDS011;32527;51.986;5.842;2023-04-21T08:49:02;36.17;;;23.98;;
46765;SDS011;32527;51.986;5.842;2023-04-21T08:51:27;34.35;;;22.88;;
46765;SDS011;32527;51.986;5.842;2023-04-21T08:53:57;33.17;;;22.48;;
46765;SDS011;32527;51.986;5.842;2023-04-21T08:56:23;36.20;;;22.73;;
46765;SDS011;32527;51.986;5.842;2023-04-21T08:58:50;34.28;;;22.90;;
46765;SDS011;32527;51.986;5.842;2023-04-21T09:01:16;38.40;;;21.80;;
46765;SDS011;32527;51.986;5.842;2023-04-21T09:03:42;33.00;;;22.08;;
46765;SDS011;32527;51.986;5.842;2023-04-21T09:06:08;32.72;;;21.55;;
46765;SDS011;32527;51.986;5.842;2023-04-21T09:08:36;34.13;;;22.08;;
46765;SDS011;32527;51.986;5.842;2023-04-21T09:11:06;32.42;;;22.33;;
46765;SDS011;32527;51.986;5.842;2023-04-21T09:13:35;32.08;;;21.35;;
46765;SDS011;32527;51.986;5.842;2023-04-21T09:16:02;30.50;;;21.13;;
46765;SDS011;32527;51.986;5.842;2023-04-21T09:18:30;35.80;;;21.95;;
46765;SDS011;32527;51.986;5.842;2023-04-21T09:23:30;35.20;;;23.65;;
46765;SDS011;32527;51.986;5.842;2023-04-21T09:25:56;33.97;;;23.15;;
46765;SDS011;32527;51.986;5.842;2023-04-21T09:28:21;33.45;;;22.77;;
46765;SDS011;32527;51.986;5.842;2023-04-21T09:30:47;32.08;;;22.23;;
46765;SDS011;32527;51.986;5.842;2023-04-21T09:33:19;33.58;;;22.08;;
46765;SDS011;32527;51.986;5.842;2023-04-21T09:35:45;33.72;;;22.95;;
46765;SDS011;32527;51.986;5.842;2023-04-21T09:38:12;31.20;;;21.90;;
46765;SDS011;32527;51.986;5.842;2023-04-21T09:40:38;35.53;;;23.48;;
46765;SDS011;32527;51.986;5.842;2023-04-21T09:43:04;37.53;;;24.48;;
46765;SDS011;32527;51.986;5.842;2023-04-21T09:45:31;38.33;;;22.73;;
46765;SDS011;32527;51.986;5.842;2023-04-21T09:47:58;35.55;;;24.42;;
46765;SDS011;32527;51.986;5.842;2023-04-21T09:50:26;35.33;;;23.08;;
46765;SDS011;32527;51.986;5.842;2023-04-21T09:52:53;38.20;;;23.75;;
46765;SDS011;32527;51.986;5.842;2023-04-21T09:55:24;36.55;;;23.10;;
46765;SDS011;32527;51.986;5.842;2023-04-21T09:57:52;35.30;;;23.55;;
46765;SDS011;32527;51.986;5.842;2023-04-21T10:00:22;33.55;;;22.52;;
46765;SDS011;32527;51.986;5.842;2023-04-21T10:02:53;34.47;;;22.45;;
46765;SDS011;32527;51.986;5.842;2023-04-21T10:05:19;37.28;;;22.05;;
46765;SDS011;32527;51.986;5.842;2023-04-21T10:07:46;35.78;;;22.60;;
46765;SDS011;32527;51.986;5.842;2023-04-21T10:10:22;33.28;;;23.40;;
46765;SDS011;32527;51.986;5.842;2023-04-21T10:12:51;33.72;;;21.98;;
46765;SDS011;32527;51.986;5.842;2023-04-21T10:15:34;35.53;;;23.05;;
46765;SDS011;32527;51.986;5.842;2023-04-21T10:20:51;33.45;;;21.23;;
46765;SDS011;32527;51.986;5.842;2023-04-21T10:26:09;28.13;;;20.48;;
46765;SDS011;32527;51.986;5.842;2023-04-21T10:28:45;35.65;;;22.15;;
46765;SDS011;32527;51.986;5.842;2023-04-21T10:39:28;34.28;;;20.63;;
46765;SDS011;32527;51.986;5.842;2023-04-21T10:41:56;31.77;;;21.17;;
46765;SDS011;32527;51.986;5.842;2023-04-21T10:44:23;31.77;;;19.80;;
46765;SDS011;32527;51.986;5.842;2023-04-21T10:54:27;29.52;;;19.80;;
46765;SDS011;32527;51.986;5.842;2023-04-21T10:59:58;28.13;;;19.42;;
46765;SDS011;32527;51.986;5.842;2023-04-21T11:02:24;31.60;;;20.77;;
46765;SDS011;32527;51.986;5.842;2023-04-21T11:04:51;31.73;;;20.30;;
46765;SDS011;32527;51.986;5.842;2023-04-21T11:07:21;29.60;;;19.40;;
46765;SDS011;32527;51.986;5.842;2023-04-21T11:09:49;29.88;;;19.63;;
46765;SDS011;32527;51.986;5.842;2023-04-21T11:12:21;28.83;;;20.60;;
46765;SDS011;32527;51.986;5.842;2023-04-21T11:14:55;29.98;;;18.30;;
46765;SDS011;32527;51.986;5.842;2023-04-21T11:17:21;31.58;;;18.85;;
46765;SDS011;32527;51.986;5.842;2023-04-21T11:19:49;33.03;;;20.98;;
46765;SDS011;32527;51.986;5.842;2023-04-21T11:22:16;30.17;;;19.67;;
46765;SDS011;32527;51.986;5.842;2023-04-21T11:24:43;29.40;;;19.15;;
46765;SDS011;32527;51.986;5.842;2023-04-21T11:27:10;27.55;;;18.00;;
46765;SDS011;32527;51.986;5.842;2023-04-21T11:29:38;29.75;;;19.27;;
46765;SDS011;32527;51.986;5.842;2023-04-21T11:32:05;27.60;;;18.38;;
46765;SDS011;32527;51.986;5.842;2023-04-21T11:34:31;30.45;;;20.08;;
46765;SDS011;32527;51.986;5.842;2023-04-21T11:36:57;29.05;;;18.27;;
46765;SDS011;32527;51.986;5.842;2023-04-21T11:39:23;28.80;;;18.55;;
46765;SDS011;32527;51.986;5.842;2023-04-21T11:41:50;28.52;;;17.88;;
46765;SDS011;32527;51.986;5.842;2023-04-21T11:47:15;27.35;;;18.30;;
46765;SDS011;32527;51.986;5.842;2023-04-21T11:50:16;28.10;;;19.05;;
46765;SDS011;32527;51.986;5.842;2023-04-21T11:52:33;30.85;;;19.90;;
46765;SDS011;32527;51.986;5.842;2023-04-21T11:57:31;30.27;;;19.75;;
46765;SDS011;32527;51.986;5.842;2023-04-21T11:59:58;29.45;;;19.30;;
46765;SDS011;32527;51.986;5.842;2023-04-21T12:02:28;28.73;;;18.90;;
46765;SDS011;32527;51.986;5.842;2023-04-21T12:05:02;29.52;;;19.20;;
46765;SDS011;32527;51.986;5.842;2023-04-21T12:07:33;31.40;;;20.60;;
46765;SDS011;32527;51.986;5.842;2023-04-21T12:10:01;29.13;;;18.98;;
46765;SDS011;32527;51.986;5.842;2023-04-21T12:12:35;31.07;;;20.20;;
46765;SDS011;32527;51.986;5.842;2023-04-21T12:15:03;33.53;;;19.55;;
46765;SDS011;32527;51.986;5.842;2023-04-21T12:20:12;32.45;;;21.38;;
46765;SDS011;32527;51.986;5.842;2023-04-21T12:22:40;37.33;;;20.27;;
46765;SDS011;32527;51.986;5.842;2023-04-21T12:25:05;33.28;;;21.60;;
46765;SDS011;32527;51.986;5.842;2023-04-21T12:27:32;28.77;;;18.83;;
46765;SDS011;32527;51.986;5.842;2023-04-21T12:29:58;33.88;;;21.23;;
46765;SDS011;32527;51.986;5.842;2023-04-21T12:32:24;29.88;;;19.88;;
46765;SDS011;32527;51.986;5.842;2023-04-21T12:34:50;30.23;;;19.38;;
46765;SDS011;32527;51.986;5.842;2023-04-21T12:37:19;31.95;;;18.90;;
46765;SDS011;32527;51.986;5.842;2023-04-21T12:39:45;31.42;;;20.17;;
46765;SDS011;32527;51.986;5.842;2023-04-21T12:42:11;32.75;;;20.02;;
46765;SDS011;32527;51.986;5.842;2023-04-21T12:44:37;32.97;;;20.45;;
46765;SDS011;32527;51.986;5.842;2023-04-21T12:47:04;29.30;;;19.85;;
46765;SDS011;32527;51.986;5.842;2023-04-21T12:49:30;32.03;;;20.38;;
46765;SDS011;32527;51.986;5.842;2023-04-21T12:51:56;33.50;;;20.92;;
46765;SDS011;32527;51.986;5.842;2023-04-21T12:54:21;32.42;;;20.95;;
46765;SDS011;32527;51.986;5.842;2023-04-21T12:56:47;26.90;;;20.05;;
46765;SDS011;32527;51.986;5.842;2023-04-21T12:59:12;32.42;;;20.33;;
46765;SDS011;32527;51.986;5.842;2023-04-21T13:01:39;31.35;;;19.45;;
46765;SDS011;32527;51.986;5.842;2023-04-21T13:04:06;34.08;;;20.90;;
46765;SDS011;32527;51.986;5.842;2023-04-21T13:06:32;30.13;;;20.63;;
46765;SDS011;32527;51.986;5.842;2023-04-21T13:08:58;30.05;;;19.85;;
46765;SDS011;32527;51.986;5.842;2023-04-21T13:11:24;27.90;;;18.25;;
46765;SDS011;32527;51.986;5.842;2023-04-21T13:13:50;26.77;;;17.63;;
46765;SDS011;32527;51.986;5.842;2023-04-21T13:16:15;26.90;;;17.40;;
46765;SDS011;32527;51.986;5.842;2023-04-21T13:18:43;28.25;;;17.77;;
46765;SDS011;32527;51.986;5.842;2023-04-21T13:21:10;25.63;;;16.38;;
46765;SDS011;32527;51.986;5.842;2023-04-21T13:23:36;24.75;;;16.65;;
46765;SDS011;32527;51.986;5.842;2023-04-21T13:26:02;24.33;;;15.90;;
46765;SDS011;32527;51.986;5.842;2023-04-21T13:28:28;27.10;;;17.67;;
46765;SDS011;32527;51.986;5.842;2023-04-21T13:30:54;31.08;;;17.67;;
46765;SDS011;32527;51.986;5.842;2023-04-21T13:33:20;26.15;;;16.05;;
46765;SDS011;32527;51.986;5.842;2023-04-21T13:35:46;24.17;;;16.40;;
46765;SDS011;32527;51.986;5.842;2023-04-21T13:38:12;24.50;;;16.13;;
46765;SDS011;32527;51.986;5.842;2023-04-21T13:40:38;22.58;;;14.75;;
46765;SDS011;32527;51.986;5.842;2023-04-21T13:43:04;23.98;;;15.95;;
46765;SDS011;32527;51.986;5.842;2023-04-21T13:45:30;23.00;;;16.02;;
46765;SDS011;32527;51.986;5.842;2023-04-21T13:47:55;24.73;;;16.05;;
46765;SDS011;32527;51.986;5.842;2023-04-21T13:50:22;24.52;;;15.93;;
46765;SDS011;32527;51.986;5.842;2023-04-21T13:52:48;27.90;;;15.95;;
46765;SDS011;32527;51.986;5.842;2023-04-21T13:55:14;25.02;;;16.10;;
46765;SDS011;32527;51.986;5.842;2023-04-21T13:57:40;23.95;;;15.82;;
46765;SDS011;32527;51.986;5.842;2023-04-21T14:00:06;23.77;;;15.57;;
46765;SDS011;32527;51.986;5.842;2023-04-21T14:02:35;25.40;;;16.13;;
46765;SDS011;32527;51.986;5.842;2023-04-21T14:05:02;27.52;;;16.02;;
46765;SDS011;32527;51.986;5.842;2023-04-21T14:07:28;23.35;;;16.15;;
46765;SDS011;32527;51.986;5.842;2023-04-21T14:09:54;22.60;;;14.65;;
46765;SDS011;32527;51.986;5.842;2023-04-21T14:12:22;21.58;;;16.15;;
46765;SDS011;32527;51.986;5.842;2023-04-21T14:14:50;24.23;;;15.73;;
46765;SDS011;32527;51.986;5.842;2023-04-21T14:17:16;20.58;;;15.23;;
46765;SDS011;32527;51.986;5.842;2023-04-21T14:19:41;28.45;;;16.38;;
46765;SDS011;32527;51.986;5.842;2023-04-21T14:22:07;23.83;;;15.40;;
46765;SDS011;32527;51.986;5.842;2023-04-21T14:24:33;29.42;;;17.80;;
46765;SDS011;32527;51.986;5.842;2023-04-21T14:26:59;24.42;;;16.42;;
46765;SDS011;32527;51.986;5.842;2023-04-21T14:29:26;24.77;;;16.25;;
46765;SDS011;32527;51.986;5.842;2023-04-21T14:31:52;26.27;;;17.27;;
46765;SDS011;32527;51.986;5.842;2023-04-21T14:34:21;23.67;;;16.10;;
46765;SDS011;32527;51.986;5.842;2023-04-21T14:36:47;27.35;;;18.10;;
46765;SDS011;32527;51.986;5.842;2023-04-21T14:39:14;24.73;;;17.23;;
46765;SDS011;32527;51.986;5.842;2023-04-21T14:41:40;28.98;;;17.40;;
46765;SDS011;32527;51.986;5.842;2023-04-21T14:44:05;25.38;;;16.13;;
46765;SDS011;32527;51.986;5.842;2023-04-21T14:46:31;26.65;;;17.83;;
46765;SDS011;32527;51.986;5.842;2023-04-21T14:48:56;27.13;;;17.33;;
46765;SDS011;32527;51.986;5.842;2023-04-21T14:51:22;25.73;;;16.67;;
46765;SDS011;32527;51.986;5.842;2023-04-21T14:53:48;25.02;;;16.30;;